Time;durP1;ratioP1;P1;durP2;ratioP2;P2;SDS_P1;SDS_P2;PMS_P1;PMS_P2;Temp;Humidity;BMP_temperature;BMP_pressure;BME280_temperature;BME280_humidity;BME280_pressure;Samples;Min_cycle;Max_cycle;Signal;HPM_P1;HPM_P2
2024/02/24 00:02:31;;;;;;;4.28;2.55;;;23.70;49.70;;;;;;6129809;28;80723;-56
2024/02/24 00:05:32;;;;;;;4.18;2.72;;;23.60;49.90;;;;;;6127830;28;80300;-56
2024/02/24 00:08:33;;;;;;;3.60;2.53;;;23.60;49.60;;;;;;6128390;28;80758;-57
2024/02/24 00:11:33;;;;;;;3.03;2.47;;;23.60;49.80;;;;;;6129338;28;80500;-57
2024/02/24 00:14:34;;;;;;;3.22;2.58;;;23.60;49.60;;;;;;6128919;28;80797;-57
2024/02/24 00:17:34;;;;;;;4.07;2.50;;;23.60;49.40;;;;;;6128208;28;80874;-58
2024/02/24 00:20:35;;;;;;;3.60;2.60;;;23.60;49.40;;;;;;6128394;28;80624;-58
2024/02/24 00:23:35;;;;;;;3.83;2.97;;;23.60;49.60;;;;;;6128682;28;81232;-62
2024/02/24 00:26:36;;;;;;;2.95;2.40;;;23.60;49.40;;;;;;6127890;28;81258;-63
2024/02/24 00:29:36;;;;;;;4.15;2.95;;;23.60;49.40;;;;;;6128595;28;80276;-64
2024/02/24 00:32:37;;;;;;;3.83;2.58;;;23.60;49.60;;;;;;6129027;28;81131;-65
2024/02/24 00:35:39;;;;;;;3.35;2.10;;;23.60;49.60;;;;;;6128932;28;81393;-64
2024/02/24 00:38:39;;;;;;;2.92;1.90;;;23.60;49.70;;;;;;6127744;28;80436;-65
2024/02/24 00:41:40;;;;;;;3.65;2.58;;;23.60;49.70;;;;;;6128254;28;80669;-56
2024/02/24 00:44:40;;;;;;;2.88;1.98;;;23.50;49.60;;;;;;6128267;28;81702;-58
2024/02/24 00:47:41;;;;;;;5.40;3.03;;;23.60;49.50;;;;;;6125982;28;82345;-58
2024/02/24 00:50:41;;;;;;;2.28;1.55;;;23.60;49.50;;;;;;6126776;28;81323;-55
2024/02/24 00:53:42;;;;;;;2.75;2.10;;;23.60;50.20;;;;;;6127960;28;80580;-55
2024/02/24 00:56:42;;;;;;;3.50;2.13;;;23.60;50.10;;;;;;6127255;28;81641;-55
2024/02/24 00:59:43;;;;;;;2.35;2.03;;;23.60;49.70;;;;;;6127294;28;80637;-55
2024/02/24 01:02:43;;;;;;;3.38;2.33;;;23.60;49.60;;;;;;6127492;28;80758;-57
2024/02/24 01:05:44;;;;;;;2.10;1.77;;;23.60;49.40;;;;;;6129022;28;80998;-57
2024/02/24 01:08:45;;;;;;;3.28;2.17;;;23.60;49.90;;;;;;6128023;28;80430;-56
2024/02/24 01:11:45;;;;;;;2.67;1.83;;;23.60;49.60;;;;;;6126555;28;81032;-57
2024/02/24 01:14:46;;;;;;;2.63;1.90;;;23.60;49.40;;;;;;6128280;28;80469;-57
2024/02/24 01:17:48;;;;;;;3.65;2.55;;;23.60;49.20;;;;;;6127419;28;80254;-59
2024/02/24 01:20:49;;;;;;;2.90;2.38;;;23.60;49.20;;;;;;6127181;28;81569;-62
2024/02/24 01:23:49;;;;;;;4.15;2.38;;;23.60;49.20;;;;;;6127746;28;80431;-61
2024/02/24 01:26:50;;;;;;;2.83;2.20;;;23.60;49.30;;;;;;6128201;28;80547;-62
2024/02/24 01:29:50;;;;;;;3.53;2.15;;;23.60;49.30;;;;;;6132071;28;80760;-62
2024/02/24 01:32:51;;;;;;;3.92;2.38;;;23.60;48.90;;;;;;6146932;28;82642;-62
2024/02/24 01:35:51;;;;;;;2.35;2.10;;;23.60;48.70;;;;;;6127302;28;80951;-62
2024/02/24 01:38:54;;;;;;;2.75;2.22;;;23.60;48.40;;;;;;6128155;28;80031;-62
2024/02/24 01:41:54;;;;;;;3.85;2.47;;;23.60;48.30;;;;;;6138304;28;80913;-62
2024/02/24 01:44:55;;;;;;;2.92;2.20;;;23.50;48.20;;;;;;6150818;28;80718;-62
2024/02/24 01:47:56;;;;;;;2.70;2.38;;;23.60;48.30;;;;;;6138164;28;81881;-62
2024/02/24 01:50:57;;;;;;;4.07;2.33;;;23.50;48.30;;;;;;6146379;28;80576;-61
2024/02/24 01:53:57;;;;;;;3.30;2.38;;;23.50;48.30;;;;;;6128073;28;81526;-62
2024/02/24 01:56:58;;;;;;;3.95;2.33;;;23.50;48.10;;;;;;6127673;28;80554;-62
2024/02/24 01:59:58;;;;;;;3.00;2.70;;;23.50;48.20;;;;;;6132230;28;81393;-62
2024/02/24 02:03:06;;;;;;;3.15;2.65;;;23.50;48.00;;;;;;6133662;28;80248;-61
2024/02/24 02:06:06;;;;;;;3.08;2.53;;;23.50;48.10;;;;;;6141092;28;82288;-61
2024/02/24 02:09:07;;;;;;;2.70;2.28;;;23.50;48.00;;;;;;6131026;28;82143;-61
2024/02/24 02:12:07;;;;;;;3.72;2.38;;;23.50;47.90;;;;;;6130800;28;81424;-61
2024/02/24 02:15:08;;;;;;;2.70;2.30;;;23.50;48.00;;;;;;6130424;28;80305;-61
2024/02/24 02:18:09;;;;;;;3.22;2.60;;;23.50;48.10;;;;;;6130237;28;80212;-61
2024/02/24 02:21:09;;;;;;;2.63;2.30;;;23.50;48.20;;;;;;6143568;28;80735;-61
2024/02/24 02:24:10;;;;;;;3.13;2.03;;;23.50;48.30;;;;;;6132111;28;81528;-62
2024/02/24 02:27:11;;;;;;;3.85;2.05;;;23.50;48.40;;;;;;6130703;28;80618;-61
2024/02/24 02:30:11;;;;;;;2.97;2.35;;;23.50;48.70;;;;;;6130731;28;80511;-62
2024/02/24 02:33:12;;;;;;;2.75;2.40;;;23.50;48.50;;;;;;6130315;28;81769;-57
2024/02/24 02:36:13;;;;;;;2.88;2.50;;;23.50;48.60;;;;;;6130187;28;80481;-57
2024/02/24 02:39:13;;;;;;;3.22;2.30;;;23.40;48.30;;;;;;6130152;28;80739;-57
2024/02/24 02:42:13;;;;;;;3.05;2.58;;;23.40;48.60;;;;;;6131261;28;81097;-58
2024/02/24 02:45:14;;;;;;;6.35;2.25;;;23.50;48.10;;;;;;6128261;28;81671;-58
2024/02/24 02:48:14;;;;;;;2.80;2.55;;;23.50;48.00;;;;;;6130887;28;80560;-58
2024/02/24 02:51:15;;;;;;;3.50;2.80;;;23.50;47.70;;;;;;6117671;28;80135;-62
2024/02/24 02:54:15;;;;;;;3.10;2.72;;;23.50;47.80;;;;;;6129619;28;81839;-62
2024/02/24 02:57:16;;;;;;;3.95;2.80;;;23.50;47.60;;;;;;6121191;28;86475;-62
2024/02/24 03:00:16;;;;;;;2.55;2.35;;;23.50;47.90;;;;;;6130261;28;80624;-62
2024/02/24 03:03:17;;;;;;;3.58;2.92;;;23.50;47.90;;;;;;6130688;28;81082;-61
2024/02/24 03:06:18;;;;;;;3.00;2.70;;;23.50;47.70;;;;;;6130256;28;80503;-62
2024/02/24 03:09:19;;;;;;;3.55;2.95;;;23.50;47.50;;;;;;6131151;28;80241;-58
2024/02/24 03:12:19;;;;;;;3.45;2.83;;;23.50;47.40;;;;;;6141023;28;80357;-58
2024/02/24 03:15:20;;;;;;;3.35;2.75;;;23.50;47.30;;;;;;6128880;28;80703;-59
2024/02/24 03:18:20;;;;;;;2.72;2.53;;;23.40;47.50;;;;;;6140646;28;80430;-55
2024/02/24 03:21:20;;;;;;;4.63;2.80;;;23.40;47.30;;;;;;6130256;28;80444;-55
2024/02/24 03:24:21;;;;;;;3.90;2.88;;;23.40;47.50;;;;;;6129722;28;81033;-54
2024/02/24 03:27:21;;;;;;;3.17;2.70;;;23.40;47.30;;;;;;6129183;28;81393;-52
2024/02/24 03:30:22;;;;;;;4.57;3.10;;;23.30;46.90;;;;;;6130309;28;81418;-52
2024/02/24 03:33:22;;;;;;;3.97;2.88;;;23.30;46.90;;;;;;6128646;28;80817;-54
2024/02/24 03:36:23;;;;;;;3.40;2.90;;;23.30;47.10;;;;;;6122266;28;80405;-52
2024/02/24 03:39:23;;;;;;;4.10;2.90;;;23.30;47.00;;;;;;6124191;28;81580;-55
2024/02/24 03:42:24;;;;;;;3.53;2.67;;;23.30;46.90;;;;;;6129162;28;80641;-52
2024/02/24 03:45:24;;;;;;;3.60;2.83;;;23.30;46.80;;;;;;6129341;28;81120;-54
2024/02/24 03:48:25;;;;;;;3.83;3.08;;;23.30;46.90;;;;;;6129987;28;81173;-54
2024/02/24 03:51:25;;;;;;;3.78;2.80;;;23.30;46.80;;;;;;6127581;28;81035;-54
2024/02/24 03:54:26;;;;;;;3.30;2.83;;;23.30;47.00;;;;;;6129304;28;80173;-50
2024/02/24 03:57:26;;;;;;;3.30;2.70;;;23.30;47.20;;;;;;6129140;28;80386;-55
2024/02/24 04:00:34;;;;;;;3.20;2.90;;;23.30;47.30;;;;;;6128738;28;80411;-56
2024/02/24 04:03:34;;;;;;;3.20;2.70;;;23.40;46.90;;;;;;6128440;28;80357;-53
2024/02/24 04:06:35;;;;;;;6.25;3.58;;;23.40;46.90;;;;;;6129216;28;80620;-54
2024/02/24 04:09:35;;;;;;;3.55;2.75;;;23.30;46.80;;;;;;6130769;28;80417;-50
2024/02/24 04:12:36;;;;;;;3.05;2.72;;;23.30;48.20;;;;;;6128408;28;80546;-52
2024/02/24 04:15:36;;;;;;;3.47;2.80;;;23.40;46.80;;;;;;6127629;28;81106;-54
2024/02/24 04:18:37;;;;;;;3.63;2.95;;;23.40;46.70;;;;;;6128424;28;81112;-50
2024/02/24 04:21:38;;;;;;;4.18;2.85;;;23.40;47.20;;;;;;6128077;28;80558;-59
2024/02/24 04:24:38;;;;;;;4.45;3.53;;;23.40;47.30;;;;;;6129707;28;80987;-62
2024/02/24 04:27:39;;;;;;;3.65;2.72;;;23.40;46.70;;;;;;6153027;28;81182;-61
2024/02/24 04:30:39;;;;;;;4.15;2.70;;;23.40;46.80;;;;;;6137864;28;80536;-62
2024/02/24 04:33:40;;;;;;;4.25;2.97;;;23.50;46.70;;;;;;6129097;28;80545;-62
2024/02/24 04:36:41;;;;;;;3.95;3.08;;;23.50;46.70;;;;;;6140446;28;81655;-62
2024/02/24 04:39:41;;;;;;;4.50;3.00;;;23.50;46.60;;;;;;6127678;28;81107;-61
2024/02/24 04:42:42;;;;;;;4.30;2.90;;;23.50;46.70;;;;;;6128268;28;81537;-61
2024/02/24 04:45:42;;;;;;;5.38;3.13;;;23.50;47.00;;;;;;6128638;28;82806;-60
2024/02/24 04:48:43;;;;;;;3.50;2.90;;;23.60;46.80;;;;;;6129698;28;80695;-61
2024/02/24 04:51:43;;;;;;;5.43;3.03;;;23.60;46.90;;;;;;6138451;28;80356;-61
2024/02/24 04:54:44;;;;;;;2.90;2.55;;;23.60;47.00;;;;;;6139776;28;81012;-61
2024/02/24 04:57:44;;;;;;;3.13;2.72;;;23.60;47.00;;;;;;6128458;28;81447;-61
2024/02/24 05:00:45;;;;;;;3.40;2.80;;;23.60;46.70;;;;;;6131982;28;80922;-61
2024/02/24 05:03:46;;;;;;;3.45;2.75;;;23.70;46.90;;;;;;6134715;28;81389;-63
2024/02/24 05:06:46;;;;;;;3.50;2.80;;;23.70;47.10;;;;;;6129212;28;80627;-61
2024/02/24 05:09:47;;;;;;;3.17;2.70;;;23.70;46.70;;;;;;6139355;28;80238;-62
2024/02/24 05:12:47;;;;;;;3.28;2.90;;;23.70;46.90;;;;;;6135707;28;82422;-63
2024/02/24 05:15:48;;;;;;;4.40;3.10;;;23.70;46.90;;;;;;6127407;28;80974;-63
2024/02/24 05:18:48;;;;;;;6.40;3.25;;;23.70;46.90;;;;;;6127411;28;80967;-56
2024/02/24 05:21:49;;;;;;;4.35;2.72;;;23.70;46.90;;;;;;6126383;28;80758;-56
2024/02/24 05:24:49;;;;;;;3.17;2.80;;;23.70;47.00;;;;;;6103444;28;81188;-53
2024/02/24 05:27:50;;;;;;;3.75;2.72;;;23.70;47.00;;;;;;6111258;28;80515;-57
2024/02/24 05:30:51;;;;;;;3.95;3.15;;;23.70;46.80;;;;;;6124617;28;81018;-57
2024/02/24 05:33:52;;;;;;;3.58;2.80;;;23.70;46.80;;;;;;6114078;28;80214;-56
2024/02/24 05:36:53;;;;;;;2.90;2.20;;;23.70;46.60;;;;;;6127929;28;81184;-59
2024/02/24 05:39:54;;;;;;;3.78;3.13;;;23.70;46.80;;;;;;6131275;28;80457;-56
2024/02/24 05:42:54;;;;;;;2.72;2.33;;;23.70;46.70;;;;;;6122982;28;80721;-57
2024/02/24 05:45:55;;;;;;;3.30;2.67;;;23.70;46.80;;;;;;6130298;28;80581;-54
2024/02/24 05:48:55;;;;;;;3.20;2.55;;;23.80;46.80;;;;;;6131218;28;80604;-56
2024/02/24 05:51:56;;;;;;;4.03;2.50;;;23.80;46.80;;;;;;6132279;28;80380;-57
2024/02/24 05:54:56;;;;;;;4.25;2.47;;;23.80;46.90;;;;;;6130495;28;80247;-50
2024/02/24 05:57:57;;;;;;;3.28;2.50;;;23.80;46.90;;;;;;6130396;28;80272;-58
2024/02/24 06:00:57;;;;;;;3.20;2.58;;;23.80;46.90;;;;;;6130593;28;80588;-58
2024/02/24 06:03:58;;;;;;;3.45;2.50;;;23.80;46.90;;;;;;6131032;28;80888;-56
2024/02/24 06:06:59;;;;;;;4.90;2.70;;;23.80;47.30;;;;;;6130375;28;80449;-56
2024/02/24 06:09:59;;;;;;;2.85;2.45;;;23.80;46.90;;;;;;6130932;28;81185;-58
2024/02/24 06:12:59;;;;;;;2.58;2.30;;;23.80;47.10;;;;;;6143676;28;81455;-54
2024/02/24 06:16:00;;;;;;;3.72;2.55;;;23.80;47.00;;;;;;6123696;28;80794;-56
2024/02/24 06:19:00;;;;;;;3.22;2.50;;;23.70;46.90;;;;;;6116611;28;82234;-57
2024/02/24 06:22:01;;;;;;;3.15;2.47;;;23.70;47.00;;;;;;6125557;28;80821;-58
2024/02/24 06:25:02;;;;;;;2.63;2.20;;;23.70;47.20;;;;;;6128845;28;82567;-55
2024/02/24 06:28:02;;;;;;;5.40;2.38;;;23.70;47.30;;;;;;6128463;28;81346;-56
2024/02/24 06:31:03;;;;;;;3.55;2.47;;;23.80;47.20;;;;;;6124058;28;82126;-58
2024/02/24 06:34:03;;;;;;;5.18;2.28;;;23.80;47.40;;;;;;6126826;28;80368;-59
2024/02/24 06:37:04;;;;;;;3.85;2.50;;;23.80;47.50;;;;;;6129642;28;80775;-54
2024/02/24 06:40:04;;;;;;;2.30;2.10;;;23.80;47.40;;;;;;6125315;28;80664;-48
2024/02/24 06:43:05;;;;;;;4.47;1.95;;;23.70;47.20;;;;;;6116482;28;80786;-54
2024/02/24 06:46:05;;;;;;;2.95;2.30;;;23.70;47.00;;;;;;6123061;28;83903;-58
2024/02/24 06:49:06;;;;;;;8.90;2.17;;;23.80;47.60;;;;;;6128884;28;82371;-55
2024/02/24 06:52:06;;;;;;;5.05;2.17;;;23.80;46.90;;;;;;6129641;28;80734;-53
2024/02/24 06:55:07;;;;;;;2.47;1.85;;;23.80;47.10;;;;;;6129856;28;80479;-54
2024/02/24 06:58:07;;;;;;;2.92;2.00;;;23.70;47.20;;;;;;6130678;28;81236;-50
2024/02/24 07:01:08;;;;;;;3.85;2.47;;;23.70;47.40;;;;;;6129240;28;80144;-54
2024/02/24 07:04:08;;;;;;;6.82;2.45;;;23.70;47.80;;;;;;6129174;28;83582;-55
2024/02/24 07:07:09;;;;;;;13.10;6.90;;;23.80;48.20;;;;;;6121378;28;80595;-59
2024/02/24 07:10:09;;;;;;;49.88;18.63;;;23.80;48.20;;;;;;6125156;28;82671;-60
2024/02/24 07:13:10;;;;;;;58.33;23.23;;;23.80;48.60;;;;;;6115610;28;82944;-59
2024/02/24 07:16:11;;;;;;;53.13;21.50;;;23.80;49.00;;;;;;6125626;28;83256;-59
2024/02/24 07:19:11;;;;;;;62.05;22.55;;;23.80;49.50;;;;;;6125592;28;84533;-60
2024/02/24 07:22:12;;;;;;;60.83;22.73;;;23.80;49.80;;;;;;6123651;28;83391;-60
2024/02/24 07:25:12;;;;;;;59.03;23.40;;;23.90;49.90;;;;;;6119050;28;89432;-53
2024/02/24 07:28:13;;;;;;;55.83;21.98;;;23.90;49.90;;;;;;6119460;28;83489;-57
2024/02/24 07:31:13;;;;;;;52.75;23.27;;;23.90;50.30;;;;;;6120208;28;83256;-55
2024/02/24 07:34:14;;;;;;;47.35;21.83;;;24.00;50.50;;;;;;6118644;28;85548;-54
2024/02/24 07:37:15;;;;;;;57.38;21.45;;;24.00;50.70;;;;;;6121018;28;83400;-58
2024/02/24 07:40:15;;;;;;;47.97;20.25;;;24.00;50.60;;;;;;6106028;28;83336;-59
2024/02/24 07:43:16;;;;;;;42.28;18.90;;;24.00;50.80;;;;;;6113070;28;88007;-55
2024/02/24 07:46:16;;;;;;;37.60;19.42;;;24.00;51.00;;;;;;6110760;28;83407;-54
2024/02/24 07:49:17;;;;;;;36.30;16.45;;;24.00;51.00;;;;;;6107345;28;84800;-54
2024/02/24 07:52:18;;;;;;;38.97;16.50;;;24.00;50.90;;;;;;6095256;28;85613;-51
2024/02/24 07:55:19;;;;;;;39.58;17.20;;;24.00;50.80;;;;;;6121361;28;87442;-56
2024/02/24 07:58:19;;;;;;;37.92;16.23;;;24.00;50.80;;;;;;6110826;28;83181;-51
2024/02/24 08:01:20;;;;;;;35.85;15.75;;;24.10;50.80;;;;;;6108047;28;89446;-53
2024/02/24 08:04:20;;;;;;;40.42;16.38;;;24.10;50.80;;;;;;6116709;28;83040;-45
2024/02/24 08:07:21;;;;;;;39.35;14.98;;;24.10;50.90;;;;;;6125396;28;83714;-55
2024/02/24 08:10:21;;;;;;;31.23;14.52;;;24.10;50.50;;;;;;6121960;28;83578;-50
2024/02/24 08:13:22;;;;;;;35.28;14.98;;;24.00;50.50;;;;;;6113917;28;82810;-48
2024/02/24 08:16:22;;;;;;;34.80;14.77;;;24.10;50.50;;;;;;6122144;28;85489;-58
2024/02/24 08:19:23;;;;;;;29.70;14.05;;;24.10;50.50;;;;;;6115244;28;83198;-55
2024/02/24 08:22:23;;;;;;;29.23;12.45;;;24.00;50.50;;;;;;6123487;28;83512;-57
2024/02/24 08:25:24;;;;;;;34.47;13.48;;;24.10;50.00;;;;;;6119843;28;83644;-58
2024/02/24 08:28:24;;;;;;;23.35;11.68;;;24.00;50.00;;;;;;6108368;28;83452;-55
2024/02/24 08:31:25;;;;;;;25.75;11.27;;;24.00;50.00;;;;;;6123809;28;83126;-61
2024/02/24 08:34:26;;;;;;;23.38;10.88;;;24.00;50.20;;;;;;6124763;28;83552;-54
2024/02/24 08:37:26;;;;;;;21.73;11.60;;;24.00;50.00;;;;;;6117246;28;83426;-58
2024/02/24 08:40:27;;;;;;;29.23;12.38;;;24.00;50.20;;;;;;6114118;28;82955;-58
2024/02/24 08:43:27;;;;;;;21.30;9.80;;;24.00;50.10;;;;;;6118465;28;83481;-54
2024/02/24 08:46:28;;;;;;;17.50;9.57;;;24.10;49.90;;;;;;6106391;28;83664;-58
2024/02/24 08:49:29;;;;;;;21.52;10.00;;;24.10;50.90;;;;;;6117259;28;82104;-57
2024/02/24 08:52:29;;;;;;;31.67;10.73;;;24.20;51.30;;;;;;6108845;28;82907;-58
2024/02/24 08:55:30;;;;;;;26.10;9.73;;;24.30;51.40;;;;;;6111174;28;85351;-58
2024/02/24 08:58:30;;;;;;;26.75;10.50;;;24.30;51.50;;;;;;6120064;28;83687;-58
2024/02/24 09:01:31;;;;;;;22.65;10.07;;;24.40;51.40;;;;;;6116246;28;83422;-58
2024/02/24 09:04:31;;;;;;;21.00;9.07;;;24.50;51.40;;;;;;6120033;28;82941;-56
2024/02/24 09:07:32;;;;;;;19.08;9.40;;;24.50;51.20;;;;;;6112685;28;82913;-56
2024/02/24 09:10:32;;;;;;;24.05;9.00;;;24.50;51.20;;;;;;6116540;28;83261;-55
2024/02/24 09:13:33;;;;;;;23.65;8.43;;;24.60;50.50;;;;;;6099932;28;80750;-59
2024/02/24 09:16:35;;;;;;;21.48;9.40;;;24.60;50.20;;;;;;6118129;28;88166;-60
2024/02/24 09:19:35;;;;;;;24.98;8.23;;;24.70;50.00;;;;;;6126904;28;80838;-60
2024/02/24 09:22:36;;;;;;;20.50;7.95;;;24.80;49.90;;;;;;6126047;28;80273;-62
2024/02/24 09:25:36;;;;;;;14.35;7.55;;;24.80;50.00;;;;;;6123897;28;81465;-60
2024/02/24 09:28:37;;;;;;;16.52;7.30;;;24.70;50.20;;;;;;6118075;28;80845;-59
2024/02/24 09:31:38;;;;;;;20.52;7.53;;;24.70;50.50;;;;;;6118933;28;81116;-62
2024/02/24 09:34:39;;;;;;;21.90;7.07;;;24.70;50.30;;;;;;6126553;28;80171;-47
2024/02/24 09:37:39;;;;;;;13.70;7.25;;;24.70;50.20;;;;;;6125589;28;80867;-56
2024/02/24 09:40:40;;;;;;;16.88;8.07;;;24.70;50.50;;;;;;6126615;28;80712;-56
2024/02/24 09:43:40;;;;;;;13.48;7.20;;;24.70;50.40;;;;;;6127141;28;80679;-54
2024/02/24 09:46:41;;;;;;;16.60;7.85;;;24.80;50.40;;;;;;6126552;28;81718;-56
2024/02/24 09:49:41;;;;;;;16.88;7.53;;;24.80;50.60;;;;;;6126823;28;80970;-53
2024/02/24 09:52:42;;;;;;;15.63;7.15;;;24.80;50.80;;;;;;6121415;28;80558;-54
2024/02/24 09:55:43;;;;;;;15.45;7.55;;;24.80;51.20;;;;;;6118820;28;81848;-54
2024/02/24 09:58:43;;;;;;;11.70;6.47;;;24.80;51.50;;;;;;6116575;28;80358;-50
2024/02/24 10:01:44;;;;;;;16.80;8.05;;;24.90;51.60;;;;;;6120812;28;80294;-58
2024/02/24 10:04:44;;;;;;;12.90;7.07;;;25.00;52.40;;;;;;6126141;28;80885;-57
2024/02/24 10:07:45;;;;;;;10.13;6.10;;;25.00;52.20;;;;;;6127016;28;81778;-59
2024/02/24 10:10:45;;;;;;;13.63;6.15;;;24.90;52.70;;;;;;6120979;28;80806;-54
2024/02/24 10:13:46;;;;;;;15.75;6.70;;;24.80;52.70;;;;;;6126185;28;80351;-55
2024/02/24 10:16:50;;;;;;;11.18;5.90;;;24.80;52.80;;;;;;6122707;28;80521;-54
2024/02/24 10:19:50;;;;;;;16.10;6.90;;;24.90;52.70;;;;;;6102309;28;80644;-55
2024/02/24 10:22:51;;;;;;;12.82;6.45;;;24.80;52.60;;;;;;6126870;28;80970;-57
2024/02/24 10:25:57;;;;;;;10.85;5.70;;;24.80;52.90;;;;;;6129525;28;83386;-56
2024/02/24 10:28:57;;;;;;;9.57;5.78;;;24.70;53.10;;;;;;6129014;28;82166;-52
2024/02/24 10:31:58;;;;;;;7.80;5.53;;;24.70;53.00;;;;;;6130464;28;80205;-53
2024/02/24 10:34:58;;;;;;;11.10;4.57;;;24.70;53.30;;;;;;6107778;28;83419;-49
2024/02/24 10:37:59;;;;;;;7.93;4.88;;;24.80;52.70;;;;;;6123933;28;82112;-50
2024/02/24 10:41:00;;;;;;;7.95;4.50;;;24.90;49.50;;;;;;6127602;28;83558;-59
2024/02/24 10:44:02;;;;;;;7.82;3.83;;;24.90;48.50;;;;;;6128041;28;80448;-53
2024/02/24 10:47:02;;;;;;;5.30;2.92;;;24.90;46.80;;;;;;6129290;28;81006;-51
2024/02/24 10:50:03;;;;;;;11.00;3.42;;;24.80;46.30;;;;;;6127385;28;80264;-62
2024/02/24 10:53:04;;;;;;;3.85;2.65;;;24.70;45.40;;;;;;6126088;28;80190;-62
2024/02/24 10:56:04;;;;;;;3.22;2.03;;;24.70;44.30;;;;;;6125063;28;80317;-62
2024/02/24 10:59:05;;;;;;;3.47;1.98;;;24.70;43.40;;;;;;6122436;28;80729;-63
2024/02/24 11:02:05;;;;;;;5.80;2.00;;;24.60;43.10;;;;;;6122179;28;80365;-63
2024/02/24 11:05:06;;;;;;;3.30;2.00;;;24.60;43.00;;;;;;6129090;28;80740;-63
2024/02/24 11:08:06;;;;;;;2.08;1.63;;;24.50;42.50;;;;;;6129263;28;80590;-49
2024/02/24 11:11:07;;;;;;;2.50;1.65;;;24.50;42.30;;;;;;6120683;28;81321;-53
2024/02/24 11:14:07;;;;;;;3.75;1.50;;;24.50;42.00;;;;;;6125395;28;81296;-56
2024/02/24 11:17:08;;;;;;;2.67;1.55;;;24.50;42.00;;;;;;6128804;28;80266;-51
2024/02/24 11:20:08;;;;;;;3.20;1.48;;;24.50;42.00;;;;;;6128151;28;80594;-52
2024/02/24 11:23:09;;;;;;;2.55;2.03;;;24.50;41.80;;;;;;6120576;28;80384;-54
2024/02/24 11:26:09;;;;;;;3.25;1.65;;;24.40;41.40;;;;;;6138635;28;82090;-62
2024/02/24 11:29:10;;;;;;;3.20;1.58;;;24.20;41.40;;;;;;6129103;28;80307;-53
2024/02/24 11:32:11;;;;;;;2.78;1.35;;;24.30;41.50;;;;;;6127876;28;80455;-52
2024/02/24 11:35:12;;;;;;;3.15;1.40;;;24.30;41.20;;;;;;6126030;28;81797;-56
2024/02/24 11:38:12;;;;;;;2.08;1.42;;;24.20;41.10;;;;;;6128467;28;83437;-53
2024/02/24 11:41:13;;;;;;;2.22;1.40;;;24.10;41.50;;;;;;6128123;28;80628;-51
2024/02/24 11:44:13;;;;;;;2.13;1.60;;;24.10;41.80;;;;;;6128517;28;81952;-59
2024/02/24 11:47:14;;;;;;;3.38;1.38;;;24.00;42.50;;;;;;6128177;28;80066;-56
2024/02/24 11:50:15;;;;;;;5.13;1.90;;;24.00;44.90;;;;;;6130038;28;80526;-58
2024/02/24 11:53:15;;;;;;;2.28;1.58;;;24.00;46.00;;;;;;6128092;28;80850;-59
2024/02/24 11:56:16;;;;;;;4.22;1.70;;;24.10;46.00;;;;;;6124892;28;83828;-59
2024/02/24 11:59:16;;;;;;;7.20;1.52;;;24.10;45.40;;;;;;6123687;28;81534;-59
2024/02/24 12:02:17;;;;;;;7.25;1.92;;;24.10;45.50;;;;;;6124268;28;80391;-55
2024/02/24 12:05:17;;;;;;;6.20;1.75;;;24.10;45.60;;;;;;6118056;28;80655;-58
2024/02/24 12:08:18;;;;;;;5.95;1.77;;;24.10;45.90;;;;;;6119721;28;80459;-59
2024/02/24 12:11:18;;;;;;;3.30;1.73;;;24.10;45.60;;;;;;6120043;28;80950;-57
2024/02/24 12:14:19;;;;;;;3.05;1.77;;;24.10;45.40;;;;;;6115932;28;81234;-60
2024/02/24 12:17:20;;;;;;;2.85;1.55;;;24.10;45.50;;;;;;6112784;28;81759;-59
2024/02/24 12:20:20;;;;;;;9.82;2.20;;;24.20;45.90;;;;;;6100734;28;82006;-57
2024/02/24 12:23:21;;;;;;;5.97;1.80;;;24.20;46.40;;;;;;6106126;28;81209;-53
2024/02/24 12:26:21;;;;;;;4.63;1.63;;;24.20;45.90;;;;;;6102608;28;81568;-53
2024/02/24 12:29:22;;;;;;;4.22;1.77;;;24.20;45.80;;;;;;6105948;28;81583;-56
2024/02/24 12:32:22;;;;;;;3.60;1.88;;;24.20;45.80;;;;;;6103033;28;83758;-55
2024/02/24 12:35:23;;;;;;;3.15;1.80;;;24.20;45.90;;;;;;6108281;28;82847;-57
2024/02/24 12:38:23;;;;;;;2.15;1.70;;;24.20;46.10;;;;;;6108519;28;80622;-53
2024/02/24 12:41:25;;;;;;;2.75;1.77;;;24.20;46.30;;;;;;6105679;28;82159;-58
2024/02/24 12:44:25;;;;;;;3.47;1.50;;;24.20;46.00;;;;;;6103916;28;83357;-55
2024/02/24 12:47:26;;;;;;;3.15;1.73;;;24.20;46.80;;;;;;6107851;28;83065;-56
2024/02/24 12:50:28;;;;;;;5.78;1.77;;;24.30;46.20;;;;;;6105120;28;81020;-57
2024/02/24 12:53:28;;;;;;;2.10;1.63;;;24.30;46.30;;;;;;6107599;28;83513;-58
2024/02/24 12:56:29;;;;;;;3.85;1.42;;;24.20;46.00;;;;;;6108205;28;81372;-58
2024/02/24 12:59:29;;;;;;;2.40;1.60;;;24.20;46.50;;;;;;6097831;28;82064;-55
2024/02/24 13:02:30;;;;;;;4.57;1.90;;;24.20;46.40;;;;;;6104964;28;81610;-55
2024/02/24 13:05:30;;;;;;;5.20;1.70;;;24.20;46.20;;;;;;6109653;28;82876;-55
2024/02/24 13:08:31;;;;;;;4.78;2.03;;;24.20;46.30;;;;;;6106252;28;82624;-54
2024/02/24 13:11:31;;;;;;;4.20;2.00;;;24.20;46.50;;;;;;6094668;28;81502;-52
2024/02/24 13:14:32;;;;;;;6.45;2.10;;;24.30;46.40;;;;;;6105786;28;81403;-58
2024/02/24 13:17:32;;;;;;;4.53;1.75;;;24.30;46.20;;;;;;6124759;28;80899;-59
2024/02/24 13:20:33;;;;;;;6.03;2.17;;;24.30;47.00;;;;;;6115664;28;80378;-58
2024/02/24 13:23:33;;;;;;;4.15;1.92;;;24.30;47.00;;;;;;6128107;28;80258;-58
2024/02/24 13:26:34;;;;;;;6.18;2.72;;;24.30;47.00;;;;;;6121740;28;81095;-57
2024/02/24 13:29:34;;;;;;;4.53;2.13;;;24.30;47.30;;;;;;6107830;28;80855;-58
2024/02/24 13:32:35;;;;;;;6.72;2.00;;;24.30;47.10;;;;;;6116205;28;81821;-54
2024/02/24 13:35:35;;;;;;;9.52;2.20;;;24.30;47.30;;;;;;6115997;28;80551;-53
2024/02/24 13:38:37;;;;;;;3.28;2.13;;;24.40;47.60;;;;;;6124700;28;80616;-52
2024/02/24 13:41:37;;;;;;;2.67;2.10;;;24.40;47.40;;;;;;6126821;28;81344;-54
2024/02/24 13:44:38;;;;;;;3.17;1.98;;;24.30;46.60;;;;;;6124487;28;80879;-48
2024/02/24 13:47:38;;;;;;;4.50;2.78;;;24.30;47.10;;;;;;6118523;28;80694;-49
2024/02/24 13:50:39;;;;;;;16.00;11.38;;;24.30;47.50;;;;;;6118759;28;80750;-50
2024/02/24 13:53:40;;;;;;;29.45;21.88;;;24.40;47.30;;;;;;6101839;28;82975;-50
2024/02/24 13:56:40;;;;;;;103.35;70.07;;;24.30;47.00;;;;;;6100583;28;83241;-53
2024/02/24 13:59:40;;;;;;;123.72;78.50;;;24.40;47.90;;;;;;6103167;28;85087;-48
2024/02/24 14:02:41;;;;;;;114.63;75.57;;;24.40;47.80;;;;;;6121875;28;84924;-47
2024/02/24 14:05:42;;;;;;;117.38;77.15;;;24.40;47.60;;;;;;6122108;28;82862;-52
2024/02/24 14:08:42;;;;;;;101.05;65.78;;;24.40;48.00;;;;;;6125648;28;86265;-49
2024/02/24 14:11:43;;;;;;;94.20;61.90;;;24.40;48.00;;;;;;6102478;28;82860;-55
2024/02/24 14:14:43;;;;;;;87.25;59.10;;;24.40;47.90;;;;;;6127154;28;83180;-50
2024/02/24 14:17:44;;;;;;;87.10;59.47;;;24.40;48.40;;;;;;6125217;28;82938;-51
2024/02/24 14:20:44;;;;;;;76.57;49.95;;;24.40;48.50;;;;;;6125397;28;82996;-47
2024/02/24 14:23:45;;;;;;;68.90;47.55;;;24.50;48.80;;;;;;6125223;28;85154;-51
2024/02/24 14:26:45;;;;;;;74.85;46.33;;;24.50;48.20;;;;;;6109379;28;84014;-52
2024/02/24 14:29:46;;;;;;;64.38;41.15;;;24.50;48.20;;;;;;6109029;28;83267;-51
2024/02/24 14:32:46;;;;;;;64.65;43.55;;;24.40;49.40;;;;;;6114784;28;88699;-49
2024/02/24 14:35:47;;;;;;;59.13;39.53;;;24.40;48.50;;;;;;6116863;28;83154;-48
2024/02/24 14:38:47;;;;;;;56.90;39.38;;;24.40;50.20;;;;;;6125696;28;83567;-52
2024/02/24 14:41:48;;;;;;;63.17;39.72;;;24.40;50.40;;;;;;6126233;28;83548;-50
2024/02/24 14:44:48;;;;;;;56.42;36.20;;;24.40;51.00;;;;;;6122919;28;83324;-49
2024/02/24 14:47:49;;;;;;;49.55;33.35;;;24.40;51.40;;;;;;6113437;28;83089;-54
2024/02/24 14:50:50;;;;;;;42.72;29.25;;;24.40;51.90;;;;;;6109197;28;84778;-47
2024/02/24 14:53:51;;;;;;;42.95;28.95;;;24.40;50.80;;;;;;6111948;28;83518;-52
2024/02/24 14:56:51;;;;;;;47.88;29.33;;;24.40;50.90;;;;;;6084250;28;85114;-56
2024/02/24 14:59:52;;;;;;;43.83;26.17;;;24.40;51.80;;;;;;6093885;28;84024;-55
2024/02/24 15:02:54;;;;;;;40.45;24.33;;;24.40;50.60;;;;;;6108628;28;84105;-54
2024/02/24 15:05:55;;;;;;;36.60;23.48;;;24.50;52.80;;;;;;6106564;28;86899;-57
2024/02/24 15:08:55;;;;;;;33.35;21.83;;;24.40;53.20;;;;;;6108817;28;84517;-58
2024/02/24 15:11:56;;;;;;;32.30;19.45;;;24.40;52.70;;;;;;6108346;28;83315;-59
2024/02/24 15:14:56;;;;;;;26.45;17.27;;;24.40;52.20;;;;;;6101363;28;83826;-57
2024/02/24 15:17:58;;;;;;;30.80;18.05;;;24.40;53.60;;;;;;6102265;28;85628;-57
2024/02/24 15:20:58;;;;;;;23.83;15.20;;;24.40;53.40;;;;;;6092149;28;89799;-56
2024/02/24 15:23:59;;;;;;;23.77;15.88;;;24.40;52.10;;;;;;6103075;28;83082;-54
2024/02/24 15:26:59;;;;;;;20.90;14.13;;;24.40;52.70;;;;;;6111105;28;84279;-51
2024/02/24 15:30:00;;;;;;;21.65;15.00;;;24.30;52.50;;;;;;6100854;28;82997;-53
2024/02/24 15:33:00;;;;;;;22.75;14.25;;;24.30;52.90;;;;;;6110821;28;84932;-51